Time;durP1;ratioP1;P1;durP2;ratioP2;P2;SDS_P1;SDS_P2;PMS_P1;PMS_P2;Temp;Humidity;BMP_temperature;BMP_pressure;BME280_temperature;BME280_humidity;BME280_pressure;Samples;Min_cycle;Max_cycle;Signal;HPM_P1;HPM_P2
2021/11/18 00:01:30;;;;;;;6.20;3.00;;;6.60;99.90;;;;;;5052097;28;20021;-76
2021/11/18 00:03:55;;;;;;;6.05;3.42;;;8.00;99.90;;;;;;5052644;28;20096;-77
2021/11/18 00:06:21;;;;;;;6.63;3.80;;;8.00;99.90;;;;;;5051376;28;20120;-76
2021/11/18 00:08:47;;;;;;;4.93;3.05;;;6.60;99.90;;;;;;5052204;28;20060;-76
2021/11/18 00:11:17;;;;;;;6.32;3.85;;;6.70;99.90;;;;;;5051899;28;20032;-76
2021/11/18 00:13:46;;;;;;;7.53;4.47;;;6.70;99.90;;;;;;5052135;28;20054;-76
2021/11/18 00:16:12;;;;;;;10.35;4.72;;;6.90;99.90;;;;;;5051013;28;20029;-77
2021/11/18 00:18:39;;;;;;;10.43;5.55;;;6.50;99.90;;;;;;5052112;28;20420;-77
2021/11/18 00:21:15;;;;;;;10.88;5.18;;;6.70;99.90;;;;;;5051658;28;20470;-76
2021/11/18 00:23:45;;;;;;;7.47;4.68;;;6.50;99.90;;;;;;5050240;28;20056;-77
2021/11/18 00:26:11;;;;;;;10.98;5.10;;;6.80;99.90;;;;;;5051248;28;20120;-77
2021/11/18 00:28:37;;;;;;;7.20;4.55;;;7.20;99.90;;;;;;5033971;28;20056;-78
2021/11/18 00:31:05;;;;;;;8.05;4.47;;;6.70;99.90;;;;;;5051590;28;20025;-77
2021/11/18 00:33:31;;;;;;;7.85;4.70;;;6.70;99.90;;;;;;5051589;28;20413;-77
2021/11/18 00:35:57;;;;;;;7.82;4.65;;;7.00;99.90;;;;;;5051509;28;20600;-76
2021/11/18 00:38:23;;;;;;;6.70;4.20;;;6.80;99.90;;;;;;5054294;28;20057;-77
2021/11/18 00:40:51;;;;;;;7.60;4.72;;;6.70;99.90;;;;;;5058639;28;20091;-78
2021/11/18 00:43:18;;;;;;;7.10;4.43;;;7.40;99.90;;;;;;5040354;28;20025;-78
2021/11/18 00:45:45;;;;;;;7.03;4.53;;;6.80;99.90;;;;;;5056541;28;20036;-78
2021/11/18 00:48:11;;;;;;;10.38;5.28;;;6.70;99.90;;;;;;5055277;28;20104;-77
2021/11/18 00:50:53;;;;;;;14.50;6.00;;;6.90;99.90;;;;;;5054412;28;20025;-76
2021/11/18 00:53:20;;;;;;;10.40;5.27;;;6.80;99.90;;;;;;5059703;28;20079;-79
2021/11/18 00:55:46;;;;;;;12.48;6.57;;;6.80;99.90;;;;;;5057998;28;20116;-78
2021/11/18 00:58:11;;;;;;;17.33;7.15;;;6.70;99.90;;;;;;5055564;28;20025;-77
2021/11/18 01:00:40;;;;;;;12.63;6.50;;;6.60;99.90;;;;;;5054946;28;20036;-78
2021/11/18 01:03:07;;;;;;;13.95;7.07;;;7.60;99.90;;;;;;5056748;28;20040;-79
2021/11/18 01:05:35;;;;;;;14.77;7.45;;;6.60;99.90;;;;;;5055518;28;20025;-78
2021/11/18 01:08:03;;;;;;;12.65;7.07;;;6.50;99.90;;;;;;5055642;28;20025;-78
2021/11/18 01:10:36;;;;;;;15.02;7.50;;;6.50;99.90;;;;;;5055645;28;20047;-78
2021/11/18 01:13:04;;;;;;;11.90;7.60;;;7.30;99.90;;;;;;5055210;28;20031;-78
2021/11/18 01:15:31;;;;;;;13.60;7.88;;;6.50;99.90;;;;;;5055162;28;20067;-78
2021/11/18 01:17:58;;;;;;;15.93;8.27;;;6.50;99.90;;;;;;5055135;28;20052;-78
2021/11/18 01:20:24;;;;;;;12.07;7.75;;;7.90;99.90;;;;;;5055372;28;20032;-78
2021/11/18 01:22:52;;;;;;;14.00;8.73;;;7.70;99.90;;;;;;5055202;28;20059;-77
2021/11/18 01:25:18;;;;;;;13.25;7.88;;;6.60;99.90;;;;;;5055175;28;20025;-77
2021/11/18 01:27:44;;;;;;;13.65;8.23;;;7.40;99.90;;;;;;5021342;28;20128;-78
2021/11/18 01:30:14;;;;;;;15.75;8.15;;;6.50;99.90;;;;;;5054947;28;20406;-77
2021/11/18 01:32:40;;;;;;;15.68;9.00;;;6.70;99.90;;;;;;5054794;28;20033;-78
2021/11/18 01:35:06;;;;;;;14.05;7.68;;;6.70;99.90;;;;;;5036822;28;20064;-78
2021/11/18 01:37:32;;;;;;;13.50;8.43;;;6.70;99.90;;;;;;5055139;28;20032;-78
2021/11/18 01:39:58;;;;;;;16.67;8.10;;;6.60;99.90;;;;;;5054937;28;20037;-78
2021/11/18 01:42:24;;;;;;;15.23;8.68;;;6.70;99.90;;;;;;5055015;28;20025;-78
2021/11/18 01:44:52;;;;;;;14.10;8.27;;;6.70;99.90;;;;;;5054470;28;20096;-78
2021/11/18 01:47:19;;;;;;;15.40;9.15;;;6.60;99.90;;;;;;5037128;28;20025;-78
2021/11/18 01:49:48;;;;;;;14.50;8.35;;;6.70;99.90;;;;;;5054640;28;20032;-77
2021/11/18 01:52:17;;;;;;;15.55;8.15;;;8.50;99.90;;;;;;5037371;28;20064;-78
2021/11/18 01:54:44;;;;;;;13.13;7.57;;;6.80;99.90;;;;;;5053963;28;20450;-78
2021/11/18 01:57:13;;;;;;;13.30;8.07;;;6.70;99.90;;;;;;5054921;28;20033;-78
2021/11/18 01:59:43;;;;;;;12.68;8.48;;;6.70;99.90;;;;;;5054859;28;20032;-77
2021/11/18 02:02:10;;;;;;;15.52;9.32;;;6.80;99.90;;;;;;5051811;28;20033;-76
2021/11/18 02:05:07;;;;;;;13.50;8.80;;;6.70;99.90;;;;;;5033446;28;20043;-76
2021/11/18 02:07:33;;;;;;;11.43;7.97;;;6.80;99.90;;;;;;5055158;28;20106;-75
2021/11/18 02:09:59;;;;;;;11.60;8.13;;;7.70;99.90;;;;;;5054980;28;20037;-76
2021/11/18 02:12:28;;;;;;;12.13;8.45;;;6.60;99.90;;;;;;5054771;28;20036;-77
2021/11/18 02:14:55;;;;;;;11.38;7.65;;;6.80;99.90;;;;;;5058482;28;20029;-76
2021/11/18 02:17:25;;;;;;;10.43;7.55;;;6.80;99.90;;;;;;5055318;28;20113;-76
2021/11/18 02:19:56;;;;;;;11.02;7.55;;;7.00;99.90;;;;;;5068241;28;20023;-78
2021/11/18 02:22:23;;;;;;;11.63;8.02;;;6.80;99.90;;;;;;5057099;28;20485;-77
2021/11/18 02:24:53;;;;;;;11.23;7.47;;;7.00;99.90;;;;;;5036688;28;20024;-78
2021/11/18 02:27:23;;;;;;;8.93;6.63;;;8.40;99.90;;;;;;5040182;28;20029;-78
2021/11/18 02:29:52;;;;;;;10.77;7.03;;;7.10;99.90;;;;;;5058125;28;20031;-78
2021/11/18 02:32:20;;;;;;;13.32;8.27;;;8.20;99.90;;;;;;5056969;28;20025;-78
2021/11/18 02:34:48;;;;;;;9.52;6.70;;;7.00;99.90;;;;;;5055104;28;20025;-76
2021/11/18 02:37:14;;;;;;;9.18;6.35;;;7.00;99.90;;;;;;5056020;28;20708;-77
2021/11/18 02:39:40;;;;;;;9.48;6.65;;;6.90;99.90;;;;;;5056668;28;20049;-77
2021/11/18 02:42:08;;;;;;;10.20;6.13;;;6.90;99.90;;;;;;5056157;28;20041;-77
2021/11/18 02:44:35;;;;;;;11.25;6.63;;;8.20;99.90;;;;;;5057900;28;20053;-76
2021/11/18 02:47:06;;;;;;;10.25;6.72;;;7.00;99.90;;;;;;5064863;28;20025;-77
2021/11/18 02:49:33;;;;;;;9.25;6.07;;;7.00;99.90;;;;;;5064921;28;20029;-77
2021/11/18 02:51:58;;;;;;;9.90;6.47;;;6.90;99.90;;;;;;5062419;28;20079;-76
2021/11/18 02:54:24;;;;;;;10.57;6.10;;;7.10;99.90;;;;;;5055640;28;20033;-77
2021/11/18 02:56:52;;;;;;;13.38;5.85;;;7.00;99.90;;;;;;5038081;28;20119;-77
2021/11/18 02:59:19;;;;;;;9.52;6.18;;;7.00;99.90;;;;;;5055367;28;20033;-77
2021/11/18 03:01:46;;;;;;;10.73;6.07;;;7.10;99.90;;;;;;5054951;28;20112;-78
2021/11/18 03:04:13;;;;;;;8.20;5.82;;;7.10;99.90;;;;;;5054702;28;20386;-78
2021/11/18 03:06:39;;;;;;;7.75;5.57;;;7.00;99.90;;;;;;5054455;28;20505;-77
2021/11/18 03:09:05;;;;;;;10.13;6.25;;;7.60;99.90;;;;;;5056326;28;20036;-77
2021/11/18 03:11:31;;;;;;;10.32;5.57;;;7.90;99.90;;;;;;5055593;28;20063;-77
2021/11/18 03:13:57;;;;;;;7.97;5.40;;;7.00;99.90;;;;;;5056127;28;20504;-77
2021/11/18 03:16:24;;;;;;;9.10;5.78;;;7.10;99.90;;;;;;5054053;28;20036;-76
2021/11/18 03:18:50;;;;;;;9.38;5.70;;;7.10;99.90;;;;;;5055762;28;20056;-77
2021/11/18 03:21:21;;;;;;;9.85;5.47;;;7.00;99.90;;;;;;5055340;28;20401;-76
2021/11/18 03:23:48;;;;;;;10.32;5.40;;;8.50;99.90;;;;;;5054122;28;20029;-77
2021/11/18 03:26:17;;;;;;;9.82;5.75;;;7.10;99.90;;;;;;5053231;28;20104;-76
2021/11/18 03:28:43;;;;;;;11.25;5.68;;;7.20;99.90;;;;;;5055054;28;20401;-77
2021/11/18 03:31:10;;;;;;;10.55;5.95;;;7.10;99.90;;;;;;5054781;28;20033;-77
2021/11/18 03:33:49;;;;;;;7.88;5.75;;;7.10;99.90;;;;;;5054329;28;20029;-76
2021/11/18 03:36:16;;;;;;;10.07;5.65;;;8.30;99.90;;;;;;5053601;28;20021;-77
2021/11/18 03:38:42;;;;;;;7.72;5.50;;;6.90;99.90;;;;;;5036336;28;20025;-77
2021/11/18 03:41:10;;;;;;;9.75;5.88;;;7.10;99.90;;;;;;5055922;28;20036;-77
2021/11/18 03:43:43;;;;;;;8.07;5.18;;;8.70;99.90;;;;;;5039235;28;20272;-77
2021/11/18 03:46:10;;;;;;;9.77;5.20;;;7.10;99.90;;;;;;5061817;28;20021;-77
2021/11/18 03:48:37;;;;;;;9.95;5.85;;;9.30;99.90;;;;;;5063099;28;20029;-77
2021/11/18 03:51:05;;;;;;;11.27;5.63;;;7.10;99.90;;;;;;5057677;28;20505;-77
2021/11/18 03:53:34;;;;;;;11.82;6.22;;;7.10;99.90;;;;;;5052940;28;20371;-77
2021/11/18 03:56:02;;;;;;;8.25;5.13;;;7.10;99.90;;;;;;5052702;28;20029;-77
2021/11/18 03:58:28;;;;;;;8.50;5.75;;;8.80;99.90;;;;;;5053070;28;20029;-77
2021/11/18 04:00:54;;;;;;;8.20;5.38;;;7.10;99.90;;;;;;5053726;28;20113;-77
2021/11/18 04:03:20;;;;;;;8.27;5.43;;;7.20;99.90;;;;;;5056193;28;20029;-77
2021/11/18 04:05:45;;;;;;;11.98;5.95;;;7.60;99.90;;;;;;5055788;28;20032;-77
2021/11/18 04:08:11;;;;;;;11.75;6.22;;;7.20;99.90;;;;;;5038433;28;20524;-76
2021/11/18 04:10:39;;;;;;;9.05;5.57;;;7.30;99.90;;;;;;5059029;28;20055;-77
2021/11/18 04:13:06;;;;;;;11.45;6.78;;;7.20;99.90;;;;;;5056925;28;20042;-77
2021/11/18 04:15:32;;;;;;;8.98;6.10;;;7.20;99.90;;;;;;5054053;28;20508;-75
2021/11/18 04:17:59;;;;;;;10.40;6.07;;;7.20;99.90;;;;;;5055160;28;20108;-78
2021/11/18 04:20:25;;;;;;;10.68;6.97;;;7.20;99.90;;;;;;5053842;28;20035;-77
2021/11/18 04:22:53;;;;;;;10.82;6.20;;;7.10;99.90;;;;;;5052009;28;20490;-75
2021/11/18 04:25:26;;;;;;;9.68;6.65;;;7.10;99.90;;;;;;5033754;28;20033;-76
2021/11/18 04:27:52;;;;;;;13.13;7.10;;;7.90;99.90;;;;;;5052051;28;20027;-77
2021/11/18 04:30:22;;;;;;;11.13;6.60;;;7.10;99.90;;;;;;5054846;28;20452;-78
2021/11/18 04:32:48;;;;;;;9.55;6.80;;;7.10;99.90;;;;;;5054260;28;20040;-77
2021/11/18 04:35:14;;;;;;;12.90;7.00;;;8.40;99.90;;;;;;5054537;28;20041;-77
2021/11/18 04:37:40;;;;;;;12.55;6.80;;;7.00;99.90;;;;;;5037510;28;20061;-77
2021/11/18 04:40:07;;;;;;;13.18;6.88;;;7.00;99.90;;;;;;5054941;28;20029;-77
2021/11/18 04:42:32;;;;;;;10.52;6.82;;;7.00;99.90;;;;;;5054429;28;20167;-77
2021/11/18 04:44:58;;;;;;;8.52;6.03;;;7.10;99.90;;;;;;5055252;28;20052;-77
2021/11/18 04:47:24;;;;;;;11.73;6.63;;;7.20;99.90;;;;;;5055023;28;20108;-76
2021/11/18 04:49:50;;;;;;;12.00;7.43;;;8.00;99.90;;;;;;5036454;28;20033;-77
2021/11/18 04:52:17;;;;;;;9.95;6.97;;;7.00;99.90;;;;;;5054387;28;20025;-77
2021/11/18 04:54:43;;;;;;;9.57;6.28;;;7.00;99.90;;;;;;5053758;28;20025;-77
2021/11/18 04:57:09;;;;;;;11.55;6.63;;;8.00;99.90;;;;;;5053840;28;20116;-77
2021/11/18 04:59:36;;;;;;;10.32;5.90;;;8.40;99.90;;;;;;5036923;28;20449;-77
2021/11/18 05:02:03;;;;;;;10.93;6.07;;;7.10;99.90;;;;;;5051486;28;20021;-77
2021/11/18 05:04:29;;;;;;;11.05;6.45;;;7.10;99.90;;;;;;5053891;28;20081;-77
2021/11/18 05:06:55;;;;;;;12.43;6.47;;;7.10;99.90;;;;;;5055311;28;20440;-77
2021/11/18 05:09:21;;;;;;;9.48;6.05;;;6.70;99.90;;;;;;5055410;28;20029;-77
2021/11/18 05:11:46;;;;;;;9.07;5.65;;;7.10;99.90;;;;;;5036604;28;20031;-75
2021/11/18 05:14:12;;;;;;;8.95;5.68;;;7.20;99.90;;;;;;5055071;28;20056;-77
2021/11/18 05:16:39;;;;;;;11.50;6.57;;;7.10;99.90;;;;;;5036518;28;20410;-77
2021/11/18 05:19:05;;;;;;;8.40;6.30;;;7.00;99.90;;;;;;5053997;28;20120;-76
2021/11/18 05:21:32;;;;;;;12.38;6.53;;;7.00;99.90;;;;;;5053108;28;20063;-77
2021/11/18 05:24:01;;;;;;;9.60;6.47;;;7.00;99.90;;;;;;5052591;28;20044;-77
2021/11/18 05:26:29;;;;;;;11.77;5.82;;;7.00;99.90;;;;;;5051810;28;20112;-75
2021/11/18 05:28:55;;;;;;;8.88;6.28;;;7.00;99.90;;;;;;5052777;28;20033;-77
2021/11/18 05:31:23;;;;;;;11.02;7.35;;;8.00;99.90;;;;;;5050931;28;20087;-77
2021/11/18 05:33:50;;;;;;;11.02;6.20;;;6.90;99.90;;;;;;5035056;28;20056;-78
2021/11/18 05:36:17;;;;;;;12.45;7.28;;;6.90;99.90;;;;;;5035362;28;20040;-78
2021/11/18 05:38:43;;;;;;;12.52;6.70;;;7.00;99.90;;;;;;5037315;28;20037;-79
2021/11/18 05:41:11;;;;;;;9.82;6.38;;;7.00;99.90;;;;;;5050317;28;20389;-78
2021/11/18 05:43:40;;;;;;;10.10;6.60;;;7.40;99.90;;;;;;5059915;28;20025;-78
2021/11/18 05:46:07;;;;;;;11.82;6.28;;;6.80;99.90;;;;;;5056544;28;20025;-78
2021/11/18 05:48:33;;;;;;;9.68;6.07;;;6.90;99.90;;;;;;5059600;28;20024;-78
2021/11/18 05:51:00;;;;;;;12.55;6.60;;;7.00;99.90;;;;;;5059282;28;20025;-78
2021/11/18 05:53:32;;;;;;;9.68;6.25;;;8.60;99.90;;;;;;5058985;28;20036;-77
2021/11/18 05:56:00;;;;;;;9.93;5.93;;;7.10;99.90;;;;;;5057599;28;20029;-79
2021/11/18 05:58:27;;;;;;;9.85;6.55;;;7.70;99.90;;;;;;5058856;28;20037;-78
2021/11/18 06:00:53;;;;;;;12.60;7.00;;;6.90;99.90;;;;;;5059904;28;20089;-79
2021/11/18 06:03:18;;;;;;;9.10;5.93;;;6.90;99.90;;;;;;5037794;28;20026;-76
2021/11/18 06:05:44;;;;;;;9.60;5.60;;;7.00;99.90;;;;;;5036354;28;20033;-78
2021/11/18 06:08:10;;;;;;;7.93;5.65;;;7.00;99.90;;;;;;5059287;28;20150;-78
2021/11/18 06:10:36;;;;;;;9.90;6.15;;;8.10;99.90;;;;;;5059500;28;20029;-78
2021/11/18 06:13:03;;;;;;;11.27;6.40;;;7.00;99.90;;;;;;5059945;28;20482;-77
2021/11/18 06:15:29;;;;;;;12.50;7.20;;;7.20;99.90;;;;;;5058044;28;20037;-78
2021/11/18 06:17:55;;;;;;;10.90;6.82;;;7.10;99.90;;;;;;5059156;28;20040;-78
2021/11/18 06:20:21;;;;;;;10.85;6.35;;;7.20;99.90;;;;;;5058264;28;20029;-77
2021/11/18 06:22:47;;;;;;;10.65;6.78;;;7.10;99.90;;;;;;5051423;28;20481;-74
2021/11/18 06:25:16;;;;;;;11.38;6.63;;;7.70;99.90;;;;;;5051227;28;20041;-78
2021/11/18 06:27:44;;;;;;;9.70;5.70;;;8.10;99.90;;;;;;5054793;28;20032;-78
2021/11/18 06:30:29;;;;;;;9.95;6.05;;;7.30;99.90;;;;;;5055018;28;20029;-75
2021/11/18 06:32:56;;;;;;;11.48;6.32;;;7.20;99.90;;;;;;5054822;28;20025;-77
2021/11/18 06:35:22;;;;;;;8.40;5.85;;;7.20;99.90;;;;;;5054204;28;20033;-76
2021/11/18 06:37:49;;;;;;;10.80;7.00;;;7.20;99.90;;;;;;5051529;28;20028;-78
2021/11/18 06:40:16;;;;;;;9.02;6.20;;;7.20;99.90;;;;;;5031802;28;20048;-76
2021/11/18 06:42:44;;;;;;;13.23;6.38;;;8.90;99.90;;;;;;5049795;28;20025;-75
2021/11/18 06:45:12;;;;;;;8.90;6.00;;;7.70;99.90;;;;;;5049567;28;20033;-75
2021/11/18 06:47:37;;;;;;;11.43;6.55;;;7.20;99.90;;;;;;5036745;28;20028;-78
2021/11/18 06:50:04;;;;;;;11.32;6.15;;;7.10;99.90;;;;;;5055080;28;20421;-77
2021/11/18 06:52:29;;;;;;;10.60;7.20;;;7.20;99.90;;;;;;5035531;28;20033;-75
2021/11/18 06:54:55;;;;;;;11.73;6.30;;;7.30;99.90;;;;;;5030881;28;20103;-76
2021/11/18 06:57:21;;;;;;;10.00;6.47;;;7.20;99.90;;;;;;5049137;28;20033;-78
2021/11/18 06:59:47;;;;;;;9.55;6.22;;;7.30;99.90;;;;;;5049383;28;20025;-76
2021/11/18 07:02:13;;;;;;;9.52;6.30;;;7.20;99.90;;;;;;5052655;28;20494;-76
2021/11/18 07:04:39;;;;;;;10.60;6.70;;;8.70;99.90;;;;;;5035290;28;20120;-76
2021/11/18 07:07:05;;;;;;;9.15;6.28;;;7.30;99.90;;;;;;5060419;28;20072;-76
2021/11/18 07:09:33;;;;;;;11.60;6.53;;;7.30;99.90;;;;;;5063192;28;20039;-77
2021/11/18 07:11:59;;;;;;;10.63;6.55;;;7.20;99.90;;;;;;5071759;28;20025;-77
2021/11/18 07:14:24;;;;;;;9.63;6.38;;;7.10;99.90;;;;;;5069667;28;20029;-76
2021/11/18 07:16:50;;;;;;;12.25;7.15;;;7.20;99.90;;;;;;5065537;28;20103;-77
2021/11/18 07:19:15;;;;;;;10.10;6.43;;;7.20;99.90;;;;;;5063425;28;20036;-77
2021/11/18 07:21:41;;;;;;;10.52;6.38;;;7.20;99.90;;;;;;5055621;28;20021;-77
2021/11/18 07:24:08;;;;;;;11.65;6.63;;;7.30;99.90;;;;;;5054709;28;20104;-77
2021/11/18 07:26:37;;;;;;;10.73;7.43;;;7.30;99.90;;;;;;5054078;28;20029;-77
2021/11/18 07:29:05;;;;;;;10.63;6.63;;;7.30;99.90;;;;;;5053742;28;20032;-75
2021/11/18 07:31:30;;;;;;;9.32;6.25;;;7.30;99.90;;;;;;5053954;28;20036;-76
2021/11/18 07:33:56;;;;;;;9.77;6.38;;;7.40;99.90;;;;;;5054703;28;20501;-77
2021/11/18 07:36:22;;;;;;;10.15;6.07;;;7.40;99.90;;;;;;5053136;28;20029;-77
2021/11/18 07:38:47;;;;;;;9.32;6.03;;;7.40;99.90;;;;;;5053901;28;20493;-77
2021/11/18 07:41:13;;;;;;;8.30;5.93;;;7.40;99.90;;;;;;5054229;28;20125;-77
2021/11/18 07:43:42;;;;;;;10.88;6.32;;;7.80;99.90;;;;;;5054592;28;20486;-76
2021/11/18 07:46:11;;;;;;;9.10;6.35;;;8.30;99.90;;;;;;5048492;28;20021;-77
2021/11/18 07:48:37;;;;;;;9.40;5.47;;;7.60;99.90;;;;;;5054737;28;20029;-78
2021/11/18 07:51:04;;;;;;;10.23;6.28;;;7.90;99.90;;;;;;5055127;28;20024;-78
2021/11/18 07:53:31;;;;;;;8.32;5.70;;;9.30;99.90;;;;;;5054025;28;20033;-77
2021/11/18 07:55:57;;;;;;;10.73;5.70;;;7.60;99.90;;;;;;5053816;28;20040;-77
2021/11/18 07:58:23;;;;;;;10.68;6.45;;;7.60;99.90;;;;;;5053527;28;20096;-77
2021/11/18 08:00:51;;;;;;;11.43;5.90;;;7.70;99.90;;;;;;5052637;28;20116;-77
2021/11/18 08:03:18;;;;;;;10.43;6.03;;;7.80;99.90;;;;;;5050978;28;20025;-77
2021/11/18 08:05:44;;;;;;;10.05;5.90;;;8.40;99.90;;;;;;5051816;28;20025;-77
2021/11/18 08:08:10;;;;;;;9.10;5.95;;;7.90;99.90;;;;;;5052454;28;20052;-77
2021/11/18 08:10:36;;;;;;;9.60;5.78;;;8.10;99.90;;;;;;5052213;28;20565;-76
2021/11/18 08:13:02;;;;;;;12.80;7.43;;;7.90;99.90;;;;;;5052101;28;20090;-76
2021/11/18 08:15:28;;;;;;;12.02;6.60;;;8.00;99.90;;;;;;5050303;28;20440;-76
2021/11/18 08:17:54;;;;;;;12.15;8.05;;;8.10;99.90;;;;;;5051611;28;20067;-77
2021/11/18 08:20:21;;;;;;;10.15;6.07;;;8.10;99.90;;;;;;5052149;28;20044;-77
2021/11/18 08:22:47;;;;;;;8.57;6.43;;;8.20;99.90;;;;;;5051701;28;20385;-75
2021/11/18 08:25:15;;;;;;;10.77;6.18;;;8.30;99.90;;;;;;5050928;28;20033;-75
2021/11/18 08:27:42;;;;;;;8.30;5.43;;;8.50;99.90;;;;;;5052214;28;20069;-75
2021/11/18 08:30:15;;;;;;;10.20;5.85;;;8.60;99.90;;;;;;5052146;28;20029;-76
2021/11/18 08:32:43;;;;;;;9.48;5.85;;;8.40;99.90;;;;;;5051592;28;20029;-76
2021/11/18 08:35:10;;;;;;;11.05;6.20;;;8.40;99.90;;;;;;5044477;28;20436;-76
2021/11/18 08:37:36;;;;;;;6.90;4.70;;;8.30;99.90;;;;;;5052260;28;20093;-76
2021/11/18 08:40:03;;;;;;;6.63;4.55;;;8.20;99.90;;;;;;5052543;28;20037;-76
2021/11/18 08:42:29;;;;;;;8.52;4.97;;;8.20;99.90;;;;;;5052020;28;20406;-75
2021/11/18 08:44:56;;;;;;;8.02;4.95;;;9.40;99.90;;;;;;5051624;28;20056;-76
2021/11/18 08:47:22;;;;;;;9.88;5.22;;;8.30;99.90;;;;;;5051277;28;20505;-76
2021/11/18 08:49:48;;;;;;;8.93;5.57;;;8.30;99.90;;;;;;5051265;28;20491;-75
2021/11/18 08:52:23;;;;;;;8.82;4.47;;;9.40;99.90;;;;;;5051592;28;20025;-76
2021/11/18 08:54:52;;;;;;;8.30;5.07;;;8.30;99.90;;;;;;5031761;28;20030;-76
2021/11/18 08:57:18;;;;;;;8.25;5.18;;;8.40;99.90;;;;;;5048417;28;20025;-76
2021/11/18 08:59:44;;;;;;;7.95;5.35;;;8.90;99.90;;;;;;5054273;28;20048;-76
2021/11/18 09:02:13;;;;;;;8.98;5.28;;;8.30;99.90;;;;;;5050872;28;20490;-75
2021/11/18 09:04:39;;;;;;;7.95;4.72;;;8.40;99.90;;;;;;5050661;28;20054;-77
2021/11/18 09:07:05;;;;;;;10.38;5.10;;;8.40;99.90;;;;;;5051771;28;20060;-76
2021/11/18 09:09:31;;;;;;;8.70;4.63;;;8.90;99.90;;;;;;5053462;28;20502;-75
2021/11/18 09:11:59;;;;;;;6.78;4.38;;;8.60;99.90;;;;;;5053232;28;20028;-75
2021/11/18 09:14:27;;;;;;;6.28;4.00;;;8.50;99.90;;;;;;5052526;28;20028;-75
2021/11/18 09:16:54;;;;;;;7.85;4.85;;;8.90;99.90;;;;;;5055425;28;20123;-76
2021/11/18 09:19:27;;;;;;;9.02;4.40;;;8.60;99.90;;;;;;5055359;28;20036;-76
2021/11/18 09:21:55;;;;;;;10.25;4.57;;;9.60;99.90;;;;;;5055424;28;20048;-76
2021/11/18 09:24:32;;;;;;;8.57;4.57;;;8.70;99.90;;;;;;5037180;28;20052;-76
2021/11/18 09:27:01;;;;;;;9.30;4.53;;;8.70;99.90;;;;;;5054978;28;20040;-75
2021/11/18 09:29:28;;;;;;;7.25;4.43;;;9.00;99.90;;;;;;5055215;28;20024;-75
2021/11/18 09:31:55;;;;;;;7.35;4.57;;;9.00;99.90;;;;;;5055133;28;20029;-76
2021/11/18 09:34:21;;;;;;;7.72;4.30;;;9.10;99.90;;;;;;5054469;28;20485;-75
2021/11/18 09:36:48;;;;;;;6.50;4.35;;;10.50;99.90;;;;;;5054819;28;20048;-76
2021/11/18 09:39:15;;;;;;;7.70;4.53;;;10.20;99.90;;;;;;5055834;28;20442;-77
2021/11/18 09:41:50;;;;;;;7.15;4.78;;;9.40;99.90;;;;;;5055734;28;20485;-77
2021/11/18 09:44:31;;;;;;;5.68;4.13;;;9.50;99.90;;;;;;5055162;28;20021;-76
2021/11/18 09:47:34;;;;;;;5.80;3.80;;;9.70;99.90;;;;;;5054664;28;20029;-76
2021/11/18 09:50:36;;;;;;;6.85;4.60;;;9.40;99.90;;;;;;5054972;28;20453;-77
2021/11/18 09:53:24;;;;;;;8.10;4.40;;;9.40;99.90;;;;;;5055672;28;20092;-77
2021/11/18 09:56:54;;;;;;;7.05;4.30;;;9.40;99.90;;;;;;5057978;28;20025;-77
2021/11/18 09:59:30;;;;;;;8.95;4.93;;;9.30;99.90;;;;;;5009724;28;20041;-77
2021/11/18 10:02:10;;;;;;;10.77;4.55;;;9.40;99.90;;;;;;5048654;28;20382;-76
2021/11/18 10:04:55;;;;;;;9.05;4.85;;;9.50;99.90;;;;;;5054356;28;20027;-77
2021/11/18 10:07:28;;;;;;;11.13;4.55;;;9.50;99.90;;;;;;5054426;28;20087;-76
2021/11/18 10:10:06;;;;;;;6.65;4.45;;;9.50;99.90;;;;;;5056185;28;20033;-76
2021/11/18 10:13:09;;;;;;;11.02;5.68;;;9.40;99.90;;;;;;5054921;28;20017;-76
2021/11/18 10:16:00;;;;;;;8.20;5.47;;;9.60;99.90;;;;;;5052227;28;20033;-77
2021/11/18 10:18:34;;;;;;;8.05;5.00;;;9.50;99.90;;;;;;5047580;28;20037;-76
2021/11/18 10:21:05;;;;;;;7.97;5.50;;;9.40;99.90;;;;;;5055168;28;20501;-77
2021/11/18 10:23:32;;;;;;;8.10;4.90;;;9.40;99.90;;;;;;5055214;28;20090;-77
2021/11/18 10:26:10;;;;;;;6.72;5.00;;;11.10;99.90;;;;;;5053759;28;20523;-76
2021/11/18 10:29:06;;;;;;;6.75;4.63;;;9.80;99.90;;;;;;5055226;28;20043;-77
2021/11/18 10:31:41;;;;;;;7.47;5.28;;;9.90;99.90;;;;;;5055004;28;20411;-76
2021/11/18 10:34:17;;;;;;;6.47;4.80;;;10.20;99.90;;;;;;5055310;28;20112;-77
2021/11/18 10:37:22;;;;;;;8.32;5.10;;;10.10;99.90;;;;;;5055304;28;20139;-77
2021/11/18 10:40:16;;;;;;;9.43;4.05;;;10.10;99.90;;;;;;5047176;28;20039;-77
2021/11/18 10:43:13;;;;;;;8.77;4.68;;;10.00;99.90;;;;;;5054340;28;20056;-77
2021/11/18 10:45:52;;;;;;;6.13;4.22;;;9.90;99.90;;;;;;5053932;28;20432;-77
2021/11/18 10:48:34;;;;;;;9.18;4.60;;;11.10;99.90;;;;;;5054766;28;20017;-77
2021/11/18 10:51:10;;;;;;;6.93;4.78;;;10.00;99.90;;;;;;5056009;28;20025;-78
2021/11/18 10:53:59;;;;;;;9.27;4.47;;;10.00;99.90;;;;;;5046251;28;20048;-78
2021/11/18 10:56:40;;;;;;;6.95;4.47;;;10.10;99.90;;;;;;5055609;28;20031;-77
2021/11/18 10:59:08;;;;;;;7.47;4.18;;;9.90;99.90;;;;;;5053100;28;20043;-77
2021/11/18 11:01:38;;;;;;;6.60;4.13;;;11.50;99.90;;;;;;5052113;28;20029;-77
2021/11/18 11:04:07;;;;;;;7.20;4.60;;;10.70;99.90;;;;;;5053000;28;20021;-77
2021/11/18 11:06:39;;;;;;;6.45;4.18;;;10.00;99.90;;;;;;5053129;28;20033;-77
2021/11/18 11:09:08;;;;;;;;;;;10.00;99.90;;;;;;5054005;28;20090;-77
2021/11/18 11:11:48;;;;;;;7.38;4.55;;;9.80;99.90;;;;;;5053773;28;19962;-76
2021/11/18 11:14:46;;;;;;;9.00;4.28;;;10.00;99.90;;;;;;5053311;28;20029;-76
2021/11/18 11:17:37;;;;;;;9.73;4.93;;;11.70;99.90;;;;;;5033148;28;20029;-76
2021/11/18 11:20:23;;;;;;;7.10;4.35;;;9.90;99.90;;;;;;5033455;28;20385;-76
2021/11/18 11:23:17;;;;;;;9.55;5.07;;;9.80;99.90;;;;;;5007427;28;20048;-80
2021/11/18 11:26:10;;;;;;;10.75;4.90;;;9.90;99.90;;;;;;5052505;28;20493;-75
2021/11/18 11:28:59;;;;;;;8.68;4.60;;;9.90;99.90;;;;;;5052944;28;20043;-76
2021/11/18 11:31:37;;;;;;;10.18;5.32;;;10.10;99.90;;;;;;5050635;28;20028;-76
2021/11/18 11:34:21;;;;;;;7.43;4.32;;;11.60;99.90;;;;;;5052349;28;20020;-77
2021/11/18 11:36:53;;;;;;;7.72;4.15;;;10.30;99.90;;;;;;5053493;28;20567;-80
2021/11/18 11:40:01;;;;;;;6.85;3.88;;;10.70;99.90;;;;;;5053204;28;20096;-76
2021/11/18 11:42:52;;;;;;;12.50;5.07;;;10.20;99.90;;;;;;5005655;28;20060;-76
2021/11/18 11:45:52;;;;;;;8.07;4.78;;;10.20;99.90;;;;;;5052272;28;20470;-76
2021/11/18 11:48:41;;;;;;;11.45;5.15;;;10.00;99.90;;;;;;5052342;28;20489;-77
2021/11/18 11:51:37;;;;;;;8.43;3.97;;;10.20;99.90;;;;;;5052704;28;20033;-77
2021/11/18 11:54:34;;;;;;;8.50;4.45;;;10.20;99.90;;;;;;5052573;28;20031;-77
2021/11/18 11:57:08;;;;;;;10.23;5.22;;;10.20;99.90;;;;;;5049638;28;20029;-78
2021/11/18 11:59:40;;;;;;;10.98;5.40;;;10.10;99.90;;;;;;5052377;28;20028;-78
2021/11/18 12:02:29;;;;;;;12.63;5.28;;;9.90;99.90;;;;;;5063771;28;20544;-78
2021/11/18 12:05:08;;;;;;;7.30;4.78;;;10.70;99.90;;;;;;5058800;28;20046;-76
2021/11/18 12:07:57;;;;;;;10.35;5.07;;;10.90;99.90;;;;;;5052434;28;20439;-78
2021/11/18 12:10:25;;;;;;;8.02;4.93;;;9.70;99.90;;;;;;5052351;28;20524;-78
2021/11/18 12:13:16;;;;;;;7.55;4.97;;;9.80;99.90;;;;;;5052147;28;20044;-79
2021/11/18 12:15:50;;;;;;;9.13;4.43;;;10.30;99.90;;;;;;5020733;28;20041;-78
2021/11/18 12:18:28;;;;;;;9.80;4.88;;;9.90;99.90;;;;;;5014465;28;20032;-78
2021/11/18 12:20:56;;;;;;;7.75;4.82;;;10.60;99.90;;;;;;5038750;28;20017;-78
2021/11/18 12:23:42;;;;;;;7.22;4.78;;;9.70;99.90;;;;;;5051768;28;20040;-78
2021/11/18 12:26:15;;;;;;;10.00;5.10;;;10.50;99.90;;;;;;5047896;28;20041;-78
2021/11/18 12:29:01;;;;;;;11.05;5.22;;;10.00;99.90;;;;;;5051484;28;20100;-78
2021/11/18 12:31:31;;;;;;;11.50;4.57;;;11.60;99.90;;;;;;5042755;28;20084;-77
2021/11/18 12:34:05;;;;;;;9.45;5.00;;;10.50;99.90;;;;;;5051589;28;20028;-78
2021/11/18 12:37:13;;;;;;;12.57;5.65;;;11.40;99.90;;;;;;5051017;28;20036;-78
2021/11/18 12:40:00;;;;;;;7.30;5.05;;;9.80;99.90;;;;;;5051723;28;20398;-77
2021/11/18 12:42:59;;;;;;;9.77;5.10;;;11.20;99.90;;;;;;5051963;28;20031;-78
2021/11/18 12:45:46;;;;;;;9.15;5.03;;;9.80;99.90;;;;;;5051326;28;20031;-77
2021/11/18 12:48:38;;;;;;;10.60;5.20;;;9.60;99.90;;;;;;5051826;28;20421;-78
2021/11/18 12:51:22;;;;;;;10.23;5.53;;;9.40;99.90;;;;;;5022937;28;20079;-77
2021/11/18 12:54:09;;;;;;;11.98;5.15;;;9.50;99.90;;;;;;5051486;28;20036;-78
2021/11/18 12:57:09;;;;;;;8.27;5.32;;;9.50;99.90;;;;;;5051528;28;20021;-78
2021/11/18 12:59:46;;;;;;;10.57;5.45;;;9.60;99.90;;;;;;5051214;28;20035;-77
2021/11/18 13:02:37;;;;;;;11.23;6.13;;;9.70;99.90;;;;;;5050709;28;20060;-79
2021/11/18 13:05:09;;;;;;;13.05;6.28;;;9.90;99.90;;;;;;5050820;28;20047;-78
2021/11/18 13:07:37;;;;;;;10.18;6.05;;;9.60;99.90;;;;;;5051354;28;20052;-78
2021/11/18 13:10:24;;;;;;;12.05;5.72;;;11.50;99.90;;;;;;5051846;28;20028;-78
2021/11/18 13:13:01;;;;;;;12.50;7.20;;;9.50;99.90;;;;;;5053202;28;20029;-77